Time;durP1;ratioP1;P1;durP2;ratioP2;P2;SDS_P1;SDS_P2;PMS_P1;PMS_P2;Temp;Humidity;BMP_temperature;BMP_pressure;BME280_temperature;BME280_humidity;BME280_pressure;Samples;Min_cycle;Max_cycle;Signal;HPM_P1;HPM_P2
2022/09/30 00:00:57;;;;;;;6.40;2.53;;;;;;;20.16;55.26;99215.78;3120277;28;20172;-66
2022/09/30 00:02:29;;;;;;;3.92;2.28;;;;;;;20.13;55.35;99226.66;3119919;28;20119;-66
2022/09/30 00:04:01;;;;;;;7.38;3.13;;;;;;;20.10;55.19;99216.34;3119383;28;20705;-66
2022/09/30 00:05:33;;;;;;;10.75;3.20;;;;;;;20.05;55.54;99223.88;3120289;28;20166;-67
2022/09/30 00:07:05;;;;;;;10.57;3.40;;;;;;;20.00;55.41;99220.84;3119778;28;20075;-67
2022/09/30 00:08:38;;;;;;;5.18;2.72;;;;;;;19.96;55.60;99230.03;3119850;28;20053;-66
2022/09/30 00:10:12;;;;;;;6.68;2.78;;;;;;;19.92;55.66;99233.94;3119236;28;20326;-66
2022/09/30 00:11:45;;;;;;;5.05;2.75;;;;;;;19.89;55.84;99231.59;3120110;28;20115;-67
2022/09/30 00:13:17;;;;;;;7.68;3.35;;;;;;;19.85;55.90;99232.88;3119425;28;20053;-66
2022/09/30 00:14:51;;;;;;;5.15;2.78;;;;;;;19.81;56.01;99234.94;3120126;28;20492;-66
2022/09/30 00:16:22;;;;;;;;;;;;;;;19.75;55.86;99236.31;3120268;28;20473;-66
2022/09/30 00:17:54;;;;;;;4.40;2.72;;;;;;;19.72;56.07;99233.16;3115865;28;20051;-66
2022/09/30 00:19:27;;;;;;;5.80;2.72;;;;;;;19.71;56.18;99229.69;3126197;28;20049;-66
2022/09/30 00:20:58;;;;;;;5.05;3.05;;;;;;;19.69;56.24;99228.16;3119779;28;20049;-66
2022/09/30 00:22:30;;;;;;;5.90;2.88;;;;;;;19.69;56.48;99233.44;3119421;28;20061;-66
2022/09/30 00:24:03;;;;;;;9.13;3.53;;;;;;;19.67;56.56;99238.88;3120042;28;20076;-67
2022/09/30 00:25:35;;;;;;;6.47;3.30;;;;;;;19.66;56.50;99239.81;3119515;28;20663;-66
2022/09/30 00:27:07;;;;;;;8.18;2.92;;;;;;;19.64;56.62;99247.03;3119573;28;20045;-67
2022/09/30 00:28:40;;;;;;;4.20;3.22;;;;;;;19.61;56.80;99236.75;3119832;28;20140;-67
2022/09/30 00:30:13;;;;;;;9.35;3.58;;;;;;;19.60;56.82;99235.06;3119506;28;20065;-67
2022/09/30 00:31:45;;;;;;;7.47;3.35;;;;;;;19.60;56.78;99244.81;3119318;28;20435;-67
2022/09/30 00:33:16;;;;;;;6.63;3.08;;;;;;;19.59;57.01;99243.16;3119928;28;20057;-67
2022/09/30 00:34:47;;;;;;;6.25;3.20;;;;;;;19.52;56.99;99237.56;3121502;28;20068;-66
2022/09/30 00:36:18;;;;;;;7.95;3.35;;;;;;;19.55;57.07;99245.22;3119433;28;20055;-66
2022/09/30 00:37:50;;;;;;;5.05;2.85;;;;;;;19.55;57.26;99247.84;3119684;28;20533;-66
2022/09/30 00:39:24;;;;;;;13.00;3.40;;;;;;;19.54;57.24;99252.31;3119751;28;20079;-66
2022/09/30 00:40:56;;;;;;;7.18;3.05;;;;;;;19.53;57.59;99250.66;3119883;28;20049;-65
2022/09/30 00:42:30;;;;;;;8.05;3.13;;;;;;;19.52;57.52;99248.13;3119452;28;20542;-65
2022/09/30 00:44:02;;;;;;;5.65;3.17;;;;;;;19.51;57.63;99249.13;3119524;28;20052;-65
2022/09/30 00:45:36;;;;;;;4.95;3.15;;;;;;;19.49;57.67;99248.41;3119072;28;20049;-65
2022/09/30 00:47:20;;;;;;;;;;;;;;;19.45;57.74;99247.88;3120406;28;20502;-65
2022/09/30 00:48:54;;;;;;;6.03;3.20;;;;;;;19.43;57.69;99252.47;3114454;28;20414;-65
2022/09/30 00:50:33;;;;;;;5.40;3.13;;;;;;;19.41;57.95;99257.06;3123332;28;20124;-65
2022/09/30 00:52:04;;;;;;;5.55;3.08;;;;;;;19.39;58.14;99258.16;3114282;28;20057;-65
2022/09/30 00:53:45;;;;;;;6.45;2.97;;;;;;;19.36;58.21;99251.34;3119458;28;20478;-64
2022/09/30 00:55:27;;;;;;;7.72;3.35;;;;;;;19.33;58.63;99249.81;3119812;28;20064;-64
2022/09/30 00:57:03;;;;;;;6.60;3.70;;;;;;;19.28;59.03;99257.31;3119814;28;20474;-64
2022/09/30 00:58:38;;;;;;;6.93;2.90;;;;;;;19.28;58.85;99252.03;3118708;28;20057;-64
2022/09/30 01:00:09;;;;;;;8.93;3.17;;;;;;;19.28;58.96;99251.19;3117010;28;20065;-64
2022/09/30 01:01:44;;;;;;;4.68;3.00;;;;;;;19.28;59.12;99252.03;3117967;28;20586;-64
2022/09/30 01:03:16;;;;;;;7.32;3.35;;;;;;;19.29;59.07;99252.88;3118198;28;20821;-65
2022/09/30 01:04:47;;;;;;;6.78;3.30;;;;;;;19.28;59.06;99249.38;3118576;28;20060;-65
2022/09/30 01:06:21;;;;;;;6.50;2.92;;;;;;;19.27;59.24;99253.00;3118616;28;20140;-64
2022/09/30 01:07:55;;;;;;;7.10;3.55;;;;;;;19.28;59.39;99256.47;3119838;28;20058;-65
2022/09/30 01:09:28;;;;;;;4.60;2.60;;;;;;;19.28;59.43;99262.59;3118731;28;20057;-65
2022/09/30 01:11:00;;;;;;;8.80;3.22;;;;;;;19.28;59.56;99269.69;3118407;28;20419;-65
2022/09/30 01:12:32;;;;;;;13.00;3.40;;;;;;;19.30;59.57;99271.22;3118318;28;20056;-64
2022/09/30 01:14:10;;;;;;;12.98;3.40;;;;;;;19.27;59.97;99279.41;3118728;28;20081;-65
2022/09/30 01:15:56;;;;;;;9.77;3.42;;;;;;;19.22;59.84;99270.22;3118330;28;20142;-65
2022/09/30 01:17:41;;;;;;;10.38;3.30;;;;;;;19.22;59.72;99280.78;3118406;28;20561;-66
2022/09/30 01:19:29;;;;;;;5.32;3.30;;;;;;;19.20;59.72;99280.09;3123146;28;20072;-65
2022/09/30 01:21:19;;;;;;;8.23;3.70;;;;;;;19.18;59.44;99282.88;3120237;28;20057;-65
2022/09/30 01:23:02;;;;;;;8.05;3.42;;;;;;;19.17;59.48;99290.94;3120886;28;20057;-65
2022/09/30 01:24:45;;;;;;;8.93;3.80;;;;;;;19.09;59.58;99294.25;3121133;28;20065;-65
2022/09/30 01:26:42;;;;;;;5.53;3.97;;;;;;;19.09;59.33;99294.25;3120652;28;20057;-65
2022/09/30 01:28:47;;;;;;;7.63;4.00;;;;;;;19.06;59.25;99294.53;3116397;28;20095;-66
2022/09/30 01:30:21;;;;;;;6.03;3.15;;;;;;;19.02;59.31;99282.59;3100198;28;20085;-66
2022/09/30 01:32:01;;;;;;;8.32;3.65;;;;;;;19.00;59.48;99289.78;3099451;28;20058;-66
2022/09/30 01:33:44;;;;;;;6.18;3.15;;;;;;;18.98;59.51;99283.81;3098587;28;20058;-66
2022/09/30 01:35:25;;;;;;;9.27;3.47;;;;;;;18.96;59.56;99283.97;3108213;28;20120;-66
2022/09/30 01:37:08;;;;;;;9.38;3.50;;;;;;;18.94;59.70;99280.59;3107976;28;20430;-66
2022/09/30 01:38:48;;;;;;;8.63;3.83;;;;;;;18.94;59.64;99277.97;3108177;28;20128;-66
2022/09/30 01:40:26;;;;;;;8.75;3.75;;;;;;;18.94;59.50;99274.50;3108030;28;20068;-66
2022/09/30 01:42:10;;;;;;;6.07;3.65;;;;;;;18.93;59.75;99276.31;3101760;28;20089;-66
2022/09/30 01:43:48;;;;;;;8.25;4.15;;;;;;;18.90;59.91;99267.81;3103720;28;20053;-65
2022/09/30 01:45:29;;;;;;;9.23;3.45;;;;;;;18.86;60.16;99276.00;3103960;28;20058;-65
2022/09/30 01:47:09;;;;;;;8.98;3.38;;;;;;;18.82;60.02;99268.50;3103733;28;20164;-66
2022/09/30 01:48:50;;;;;;;5.53;3.25;;;;;;;18.83;60.32;99275.44;3108652;28;20050;-66
2022/09/30 01:50:29;;;;;;;7.07;3.75;;;;;;;18.75;60.64;99272.63;3111044;28;20222;-66
2022/09/30 01:52:07;;;;;;;5.95;3.88;;;;;;;18.69;61.11;99270.50;3108884;28;20053;-66
2022/09/30 01:53:43;;;;;;;7.38;3.45;;;;;;;18.65;61.05;99281.31;3109178;28;20057;-66
2022/09/30 01:55:22;;;;;;;6.95;4.00;;;;;;;18.63;61.34;99285.06;3101863;28;20066;-66
2022/09/30 01:56:59;;;;;;;7.93;3.38;;;;;;;18.63;61.27;99285.06;3096188;28;20055;-66
2022/09/30 01:58:40;;;;;;;12.00;4.15;;;;;;;18.63;61.28;99283.28;3096839;28;20121;-66
2022/09/30 02:00:14;;;;;;;5.30;3.47;;;;;;;18.64;61.21;99284.09;3097875;28;20062;-66
2022/09/30 02:01:52;;;;;;;6.47;3.15;;;;;;;18.65;61.38;99291.88;3102190;28;20300;-66
2022/09/30 02:03:33;;;;;;;10.43;3.65;;;;;;;18.66;61.32;99295.34;3104310;28;20097;-66
2022/09/30 02:05:09;;;;;;;7.00;3.40;;;;;;;18.64;61.26;99274.38;3103630;28;20439;-67
2022/09/30 02:06:45;;;;;;;8.10;3.35;;;;;;;18.66;61.19;99274.22;3099518;28;20058;-66
2022/09/30 02:08:23;;;;;;;8.45;4.13;;;;;;;18.66;61.26;99276.88;3099718;28;20060;-66
2022/09/30 02:10:00;;;;;;;6.20;3.40;;;;;;;18.65;61.28;99280.47;3103007;28;20450;-65
2022/09/30 02:11:35;;;;;;;6.03;3.33;;;;;;;18.65;61.27;99285.75;3102889;28;20058;-66
2022/09/30 02:13:14;;;;;;;6.05;3.30;;;;;;;18.64;61.49;99284.94;3102466;28;20458;-65
2022/09/30 02:14:49;;;;;;;6.82;3.38;;;;;;;18.64;61.44;99289.38;3103733;28;20050;-66
2022/09/30 02:16:25;;;;;;;7.97;3.75;;;;;;;18.63;61.56;99287.69;3108715;28;20121;-65
2022/09/30 02:18:02;;;;;;;6.18;3.72;;;;;;;18.61;61.59;99295.75;3108449;28;20058;-66
2022/09/30 02:19:39;;;;;;;6.13;3.53;;;;;;;18.60;61.79;99293.22;3108446;28;20108;-66
2022/09/30 02:21:16;;;;;;;9.23;4.05;;;;;;;18.57;61.88;99298.78;3106687;28;20054;-66
2022/09/30 02:22:52;;;;;;;6.07;3.50;;;;;;;18.56;61.85;99291.84;3104233;28;20058;-66
2022/09/30 02:24:27;;;;;;;7.63;3.60;;;;;;;18.56;61.81;99291.84;3101902;28;20050;-66
2022/09/30 02:26:04;;;;;;;6.75;3.72;;;;;;;18.57;61.79;99290.84;3101437;28;20534;-67
2022/09/30 02:27:46;;;;;;;9.70;3.75;;;;;;;18.56;61.64;99290.03;3100798;28;20073;-66
2022/09/30 02:29:21;;;;;;;4.95;3.45;;;;;;;18.50;62.14;99287.94;3109432;28;20057;-66
2022/09/30 02:30:58;;;;;;;6.72;3.42;;;;;;;18.55;61.91;99290.19;3120538;28;20049;-66
2022/09/30 02:32:35;;;;;;;10.32;3.83;;;;;;;18.56;62.06;99289.19;3120224;28;20053;-66
2022/09/30 02:34:10;;;;;;;7.00;3.88;;;;;;;18.56;61.86;99291.84;3122595;28;20061;-66
2022/09/30 02:35:49;;;;;;;6.50;3.90;;;;;;;18.55;61.87;99284.91;3123020;28;20088;-66
2022/09/30 02:37:27;;;;;;;4.90;3.22;;;;;;;18.50;61.86;99287.94;3121271;28;20053;-66
2022/09/30 02:39:03;;;;;;;6.85;3.17;;;;;;;18.42;61.85;99288.56;3120805;28;20049;-66
2022/09/30 02:40:39;;;;;;;5.00;3.00;;;;;;;18.37;62.02;99288.16;3120751;28;20085;-66
2022/09/30 02:42:19;;;;;;;7.68;3.47;;;;;;;18.36;61.93;99296.19;3120620;28;20454;-66
2022/09/30 02:43:52;;;;;;;6.25;3.22;;;;;;;18.34;61.79;99304.22;3120837;28;20057;-66
2022/09/30 02:45:25;;;;;;;5.22;3.55;;;;;;;18.34;61.82;99298.97;3120989;28;20058;-66
2022/09/30 02:47:08;;;;;;;7.57;3.40;;;;;;;18.33;61.77;99294.63;3120970;28;20163;-66
2022/09/30 02:48:44;;;;;;;4.38;3.40;;;;;;;18.32;61.82;99295.59;3120618;28;20054;-66
2022/09/30 02:50:22;;;;;;;8.45;3.20;;;;;;;18.31;61.79;99299.22;3121334;28;20053;-66
2022/09/30 02:52:07;;;;;;;8.57;3.35;;;;;;;18.30;62.02;99301.97;3116678;28;20469;-67
2022/09/30 02:53:47;;;;;;;12.32;3.53;;;;;;;18.28;62.02;99302.13;3120615;28;20538;-66
2022/09/30 02:55:27;;;;;;;6.97;4.07;;;;;;;18.27;61.91;99303.06;3121066;28;20053;-67
2022/09/30 02:57:07;;;;;;;5.80;3.00;;;;;;;18.26;61.78;99305.84;3120577;28;20058;-65
2022/09/30 02:58:39;;;;;;;5.95;2.97;;;;;;;18.23;62.04;99304.31;3120722;28;20136;-65
2022/09/30 03:00:12;;;;;;;4.28;3.20;;;;;;;18.23;62.05;99304.31;3120205;28;20057;-66
2022/09/30 03:01:44;;;;;;;5.15;3.00;;;;;;;18.23;62.17;99300.84;3120552;28;20119;-66
2022/09/30 03:03:20;;;;;;;6.38;3.03;;;;;;;18.22;62.10;99305.28;3120212;28;20061;-66
2022/09/30 03:04:52;;;;;;;4.35;3.33;;;;;;;18.22;62.10;99297.38;3120403;28;20115;-66
2022/09/30 03:06:24;;;;;;;8.50;3.45;;;;;;;18.22;62.06;99300.00;3120242;28;20534;-67
2022/09/30 03:07:58;;;;;;;9.52;3.67;;;;;;;18.22;61.98;99300.00;3120594;28;20052;-66
2022/09/30 03:09:30;;;;;;;7.10;3.45;;;;;;;18.21;62.35;99298.31;3120311;28;20135;-66
2022/09/30 03:11:03;;;;;;;4.95;3.65;;;;;;;18.21;62.08;99300.94;3120146;28;20103;-66
2022/09/30 03:12:44;;;;;;;8.73;3.28;;;;;;;18.21;62.26;99308.03;3120367;28;20505;-66
2022/09/30 03:14:35;;;;;;;6.03;3.65;;;;;;;18.22;62.05;99314.97;3120011;28;20572;-65
2022/09/30 03:16:19;;;;;;;6.38;3.42;;;;;;;18.22;62.27;99314.97;3120060;28;20127;-65
2022/09/30 03:18:01;;;;;;;7.07;3.60;;;;;;;18.19;62.21;99316.91;3120302;28;20106;-66
2022/09/30 03:19:45;;;;;;;7.05;3.95;;;;;;;18.21;62.42;99319.41;3121350;28;20049;-65
2022/09/30 03:21:34;;;;;;;10.48;4.53;;;;;;;18.21;62.50;99323.84;3120412;28;20099;-65
2022/09/30 03:23:35;;;;;;;8.45;4.15;;;;;;;18.17;62.48;99320.63;3120587;28;20434;-65
2022/09/30 03:25:31;;;;;;;10.10;4.50;;;;;;;18.15;62.43;99315.47;3117527;28;20060;-66
2022/09/30 03:27:13;;;;;;;7.65;3.90;;;;;;;18.16;62.69;99311.03;3115402;28;20081;-66
2022/09/30 03:28:56;;;;;;;7.10;4.03;;;;;;;18.08;62.77;99308.25;3120003;28;20299;-66
2022/09/30 03:30:32;;;;;;;8.53;3.90;;;;;;;18.16;62.69;99316.31;3119090;28;20045;-67
2022/09/30 03:32:15;;;;;;;10.48;4.32;;;;;;;18.16;62.71;99317.16;3120188;28;20312;-66
2022/09/30 03:33:53;;;;;;;10.40;4.63;;;;;;;18.13;62.91;99327.09;3120279;28;20076;-66
2022/09/30 03:35:32;;;;;;;7.38;4.15;;;;;;;18.13;63.04;99335.00;3116805;28;20050;-66
2022/09/30 03:37:17;;;;;;;6.43;4.22;;;;;;;18.11;63.06;99337.78;3120089;28;20057;-66
2022/09/30 03:38:59;;;;;;;10.65;4.05;;;;;;;18.08;63.24;99342.50;3119990;28;20119;-66
2022/09/30 03:40:41;;;;;;;10.02;4.47;;;;;;;18.07;63.17;99348.72;3119636;28;20057;-65
2022/09/30 03:42:18;;;;;;;7.28;4.30;;;;;;;18.06;63.34;99357.59;3108498;28;20569;-65
2022/09/30 03:43:58;;;;;;;8.73;4.78;;;;;;;18.05;63.34;99353.28;3108303;28;20787;-65
2022/09/30 03:45:35;;;;;;;11.13;4.78;;;;;;;18.03;63.39;99355.22;3111192;28;20544;-66
2022/09/30 03:47:20;;;;;;;10.80;4.45;;;;;;;18.04;63.53;99351.59;3109806;28;20057;-63
2022/09/30 03:48:57;;;;;;;13.98;4.45;;;;;;;18.01;63.62;99342.16;3109404;28;20045;-63
2022/09/30 03:50:30;;;;;;;10.30;5.13;;;;;;;18.00;63.67;99331.75;3112184;28;20754;-63
2022/09/30 03:52:07;;;;;;;10.48;4.50;;;;;;;18.00;63.71;99332.59;3109076;28;20487;-63
2022/09/30 03:53:45;;;;;;;7.47;4.50;;;;;;;17.98;63.89;99333.66;3108834;28;20057;-64
2022/09/30 03:55:21;;;;;;;8.27;4.30;;;;;;;17.95;63.98;99330.34;3109264;28;20076;-63
2022/09/30 03:56:53;;;;;;;10.05;5.45;;;;;;;17.95;64.12;99335.63;3109004;28;20058;-64
2022/09/30 03:58:26;;;;;;;11.83;4.60;;;;;;;17.95;64.01;99329.47;3109061;28;20660;-64
2022/09/30 03:59:59;;;;;;;9.45;4.50;;;;;;;17.92;64.16;99335.88;3109747;28;20423;-69
2022/09/30 04:01:32;;;;;;;7.80;4.57;;;;;;;17.88;64.43;99339.72;3109499;28;20303;-69
2022/09/30 04:03:07;;;;;;;131.60;82.22;;;;;;;17.87;64.36;99332.78;3109351;28;20172;-68
2022/09/30 04:04:41;;;;;;;15.25;8.60;;;;;;;17.88;64.50;99331.81;3110952;28;20087;-69
2022/09/30 04:06:15;;;;;;;55.63;39.35;;;;;;;17.89;64.64;99340.53;3106424;28;20057;-67
2022/09/30 04:07:48;;;;;;;22.73;11.27;;;;;;;17.88;64.64;99342.34;3109819;28;20061;-66
2022/09/30 04:09:20;;;;;;;13.70;4.88;;;;;;;17.87;64.83;99345.13;3108409;28;20108;-65
2022/09/30 04:10:53;;;;;;;11.80;4.43;;;;;;;17.80;65.04;99334.22;3110055;28;20565;-66
2022/09/30 04:12:25;;;;;;;7.97;3.85;;;;;;;17.79;65.03;99335.19;3108479;28;20148;-64
2022/09/30 04:13:57;;;;;;;7.38;4.07;;;;;;;17.77;65.16;99331.81;3110651;28;20083;-64
2022/09/30 04:15:29;;;;;;;8.85;4.18;;;;;;;17.76;65.03;99337.22;3109697;28;20566;-62
2022/09/30 04:17:02;;;;;;;7.55;3.90;;;;;;;17.73;64.95;99338.31;3104913;28;20057;-63
2022/09/30 04:18:36;;;;;;;7.25;4.40;;;;;;;17.73;65.03;99347.03;3115646;28;20140;-63
2022/09/30 04:20:08;;;;;;;7.80;4.35;;;;;;;17.72;65.06;99349.81;3105761;28;20521;-63
2022/09/30 04:21:40;;;;;;;11.93;4.13;;;;;;;17.71;65.09;99354.22;3109512;28;20061;-62
2022/09/30 04:23:12;;;;;;;12.32;5.00;;;;;;;17.70;65.16;99367.53;3108678;28;20065;-60
2022/09/30 04:24:45;;;;;;;7.45;4.40;;;;;;;17.69;65.34;99360.59;3109838;28;20615;-60
2022/09/30 04:26:20;;;;;;;7.82;4.28;;;;;;;17.68;65.19;99364.19;3108921;28;20159;-61
2022/09/30 04:27:51;;;;;;;10.05;4.82;;;;;;;17.67;65.18;99365.16;3109351;28;20331;-63
2022/09/30 04:29:23;;;;;;;8.50;5.07;;;;;;;17.69;65.34;99373.78;3110043;28;20136;-62
2022/09/30 04:30:55;;;;;;;17.27;4.35;;;;;;;17.69;65.28;99376.41;3109535;28;20131;-62
2022/09/30 04:32:27;;;;;;;14.55;4.50;;;;;;;17.69;65.38;99373.78;3109763;28;20061;-62
2022/09/30 04:33:59;;;;;;;14.43;5.65;;;;;;;17.68;65.36;99372.06;3111232;28;20061;-64
2022/09/30 04:35:31;;;;;;;18.48;5.63;;;;;;;17.67;65.52;99383.59;3109336;28;20534;-61
2022/09/30 04:37:04;;;;;;;10.25;4.18;;;;;;;17.65;65.60;99375.78;3110448;28;20065;-60
2022/09/30 04:38:37;;;;;;;9.85;4.35;;;;;;;17.65;65.62;99374.97;3109600;28;20426;-61
2022/09/30 04:40:09;;;;;;;17.65;4.88;;;;;;;17.64;65.54;99370.66;3109689;28;20112;-62
2022/09/30 04:41:42;;;;;;;10.70;4.40;;;;;;;17.65;65.56;99367.88;3101043;28;20584;-62
2022/09/30 04:43:13;;;;;;;;;;;;;;;17.62;65.75;99367.31;3108336;28;20313;-61
2022/09/30 04:44:46;;;;;;;7.80;4.93;;;;;;;17.60;65.45;99367.44;3109518;28;20050;-61
2022/09/30 04:46:19;;;;;;;;;;;;;;;17.58;65.80;99368.53;3109755;28;20300;-62
2022/09/30 04:47:51;;;;;;;13.88;5.13;;;;;;;17.56;65.67;99362.53;3107676;28;20452;-61
2022/09/30 04:49:23;;;;;;;12.80;5.05;;;;;;;17.55;65.81;99355.63;3110015;28;20049;-61
2022/09/30 04:50:56;;;;;;;13.57;5.20;;;;;;;17.56;65.92;99357.28;3109152;28;20053;-63
2022/09/30 04:52:27;;;;;;;16.48;4.78;;;;;;;17.58;65.94;99368.53;3108666;28;20080;-61
2022/09/30 04:54:00;;;;;;;8.65;4.30;;;;;;;17.59;65.99;99376.28;3107926;28;20061;-60
2022/09/30 04:55:32;;;;;;;17.10;5.93;;;;;;;17.59;65.85;99381.56;3108882;28;20100;-62
2022/09/30 04:57:06;;;;;;;17.20;6.40;;;;;;;17.60;66.14;99387.66;3110420;28;20053;-62
2022/09/30 04:58:37;;;;;;;;;;;;;;;17.59;65.78;99399.97;3111284;28;20160;-62
2022/09/30 05:00:11;;;;;;;12.75;4.63;;;;;;;17.59;66.06;99409.69;3111528;28;20043;-62
2022/09/30 05:01:43;;;;;;;13.73;4.50;;;;;;;17.59;66.07;99410.53;3110639;28;20467;-63
2022/09/30 05:03:15;;;;;;;14.70;5.22;;;;;;;17.60;66.35;99420.13;3111323;28;20054;-64
2022/09/30 05:04:47;;;;;;;9.57;4.78;;;;;;;17.61;66.35;99418.31;3110693;28;20584;-62
2022/09/30 05:06:19;;;;;;;10.65;5.07;;;;;;;17.63;66.19;99424.28;3110655;28;20176;-60
2022/09/30 05:07:51;;;;;;;12.27;5.28;;;;;;;17.64;66.26;99426.78;3111445;28;20175;-61
2022/09/30 05:09:27;;;;;;;14.98;5.45;;;;;;;17.66;66.17;99426.69;3111482;28;20065;-62
2022/09/30 05:11:01;;;;;;;20.52;5.18;;;;;;;17.66;66.28;99427.50;3110184;28;20076;-61
2022/09/30 05:12:35;;;;;;;12.95;5.18;;;;;;;17.67;66.23;99428.34;3109395;28;20095;-61
2022/09/30 05:14:08;;;;;;;15.43;4.65;;;;;;;17.69;66.30;99429.91;3110775;28;20131;-62
2022/09/30 05:15:41;;;;;;;12.30;4.90;;;;;;;17.69;66.36;99424.63;3111192;28;20176;-62
2022/09/30 05:17:13;;;;;;;17.40;4.95;;;;;;;17.72;66.55;99424.38;3111756;28;20095;-63
2022/09/30 05:18:45;;;;;;;9.73;4.80;;;;;;;17.74;66.41;99432.16;3113263;28;20115;-62
2022/09/30 05:20:18;;;;;;;6.63;4.07;;;;;;;17.73;66.35;99433.94;3111495;28;20061;-64
2022/09/30 05:21:50;;;;;;;7.13;4.32;;;;;;;17.73;66.38;99431.31;3111502;28;20128;-62
2022/09/30 05:23:23;;;;;;;9.70;3.83;;;;;;;17.76;66.29;99439.94;3111392;28;20057;-62
2022/09/30 05:24:56;;;;;;;9.15;4.05;;;;;;;17.72;66.58;99449.88;3112216;28;20053;-62
2022/09/30 05:26:28;;;;;;;11.10;4.18;;;;;;;17.77;66.24;99457.41;3111272;28;20322;-63
2022/09/30 05:28:02;;;;;;;8.38;3.45;;;;;;;17.76;66.22;99461.84;3111893;28;20061;-62
2022/09/30 05:29:34;;;;;;;11.15;3.80;;;;;;;17.78;66.03;99459.97;3110912;28;20061;-61
2022/09/30 05:31:06;;;;;;;6.55;3.65;;;;;;;17.81;66.17;99458.88;3111294;28;20096;-62
2022/09/30 05:32:38;;;;;;;6.43;4.20;;;;;;;17.79;66.03;99460.78;3112280;28;20061;-62
2022/09/30 05:34:10;;;;;;;7.47;4.13;;;;;;;17.79;66.01;99451.09;3112196;28;20073;-62
2022/09/30 05:35:43;;;;;;;6.38;4.05;;;;;;;17.79;65.85;99445.81;3111496;28;20059;-63
2022/09/30 05:37:15;;;;;;;10.00;3.90;;;;;;;17.82;65.87;99448.19;3111675;28;20144;-62
2022/09/30 05:38:51;;;;;;;13.38;4.28;;;;;;;17.77;66.25;99442.44;3109635;28;20221;-61
2022/09/30 05:40:23;;;;;;;10.85;4.13;;;;;;;17.76;66.18;99450.47;3111342;28;20087;-63
2022/09/30 05:42:00;;;;;;;14.95;4.25;;;;;;;17.79;66.26;99453.72;3111639;28;20057;-63
2022/09/30 05:43:33;;;;;;;15.77;4.57;;;;;;;17.83;66.12;99456.94;3113634;28;20057;-64
2022/09/30 05:45:07;;;;;;;12.55;4.05;;;;;;;17.84;66.10;99459.47;3111193;28;20115;-63
2022/09/30 05:46:39;;;;;;;10.77;4.82;;;;;;;17.86;66.15;99459.31;3111557;28;20053;-63
2022/09/30 05:48:11;;;;;;;7.57;4.38;;;;;;;17.87;65.98;99459.22;3113364;28;20049;-63
2022/09/30 05:49:45;;;;;;;12.60;4.93;;;;;;;17.89;66.50;99459.06;3111026;28;20273;-63
2022/09/30 05:51:17;;;;;;;18.30;9.68;;;;;;;17.93;66.28;99458.72;3111205;28;20550;-69
2022/09/30 05:52:49;;;;;;;13.30;4.88;;;;;;;18.00;66.23;99464.31;3109919;28;20065;-67
2022/09/30 05:54:21;;;;;;;77.15;40.17;;;;;;;18.06;66.11;99457.72;3111407;28;20061;-67
2022/09/30 05:55:53;;;;;;;62.53;13.75;;;;;;;18.12;66.12;99444.88;3110535;28;20068;-68
2022/09/30 05:57:25;;;;;;;103.05;23.20;;;;;;;18.23;65.98;99453.69;3110785;28;20167;-63
2022/09/30 05:58:58;;;;;;;21.55;5.30;;;;;;;18.30;65.69;99450.41;3110756;28;20057;-63
2022/09/30 06:00:30;;;;;;;;;;;;;;;18.38;65.66;99458.53;3110954;28;20091;-63
2022/09/30 06:02:03;;;;;;;12.38;3.92;;;;;;;18.46;65.31;99455.28;3110647;28;20443;-62
2022/09/30 06:03:37;;;;;;;10.52;4.53;;;;;;;18.57;65.00;99462.25;3110280;28;20116;-60
2022/09/30 06:05:09;;;;;;;;;;;;;;;18.65;64.80;99459.81;3110060;28;20053;-63
2022/09/30 06:06:41;;;;;;;9.63;4.50;;;;;;;18.68;64.65;99461.38;3110493;28;19929;-63
2022/09/30 06:08:14;;;;;;;12.90;4.25;;;;;;;18.69;64.69;99463.03;3109035;28;20067;-63
2022/09/30 06:09:46;;;;;;;10.02;4.43;;;;;;;18.67;64.57;99451.81;3110372;28;20057;-63
2022/09/30 06:11:22;;;;;;;15.60;4.40;;;;;;;18.65;64.68;99459.81;3109507;28;20077;-61
2022/09/30 06:12:58;;;;;;;22.08;5.18;;;;;;;18.68;64.73;99456.94;3111904;28;20060;-62
2022/09/30 06:14:31;;;;;;;16.33;4.82;;;;;;;18.71;64.49;99464.59;3114435;28;20490;-63
2022/09/30 06:16:04;;;;;;;18.70;5.40;;;;;;;18.74;64.52;99468.81;3115254;28;20111;-63
2022/09/30 06:17:36;;;;;;;10.43;4.78;;;;;;;18.79;64.54;99474.53;3113836;28;20123;-63
2022/09/30 06:19:08;;;;;;;10.30;4.82;;;;;;;18.84;64.45;99465.25;3114120;28;20072;-62
2022/09/30 06:20:40;;;;;;;14.00;5.45;;;;;;;18.92;64.43;99471.69;3111628;28;20089;-63
2022/09/30 06:22:12;;;;;;;9.68;4.50;;;;;;;19.01;64.21;99470.88;3114671;28;20612;-63
2022/09/30 06:23:45;;;;;;;8.63;3.90;;;;;;;19.16;64.20;99476.66;3114112;28;20061;-64
2022/09/30 06:25:17;;;;;;;9.52;4.13;;;;;;;19.33;64.51;99484.78;3114609;28;20627;-63
2022/09/30 06:26:50;;;;;;;9.35;3.80;;;;;;;19.46;63.64;99495.16;3115112;28;20053;-61
2022/09/30 06:28:22;;;;;;;8.02;3.65;;;;;;;19.65;63.77;99485.63;3114946;28;20065;-65
2022/09/30 06:29:56;;;;;;;8.73;4.32;;;;;;;19.77;62.85;99498.59;3114273;28;20062;-62
2022/09/30 06:31:29;;;;;;;12.02;4.82;;;;;;;19.87;62.63;99497.78;3114941;28;20080;-62
2022/09/30 06:33:01;;;;;;;8.20;3.95;;;;;;;20.04;62.36;99499.75;3120257;28;20053;-62
2022/09/30 06:34:33;;;;;;;6.72;3.63;;;;;;;20.23;62.03;99505.06;3113551;28;20057;-62
2022/09/30 06:36:06;;;;;;;7.53;3.85;;;;;;;20.41;61.13;99501.75;3113903;28;20318;-64
2022/09/30 06:37:38;;;;;;;13.07;3.95;;;;;;;20.51;60.86;99510.50;3114287;28;20586;-63
2022/09/30 06:39:10;;;;;;;8.85;3.47;;;;;;;20.74;60.28;99508.44;3114973;28;20092;-64
2022/09/30 06:40:42;;;;;;;7.07;4.13;;;;;;;20.99;59.79;99514.91;3113580;28;20135;-65
2022/09/30 06:42:14;;;;;;;14.10;5.78;;;;;;;21.21;59.57;99520.84;3115508;28;20091;-64
2022/09/30 06:43:46;;;;;;;8.32;3.72;;;;;;;21.46;58.61;99516.75;3113686;28;20057;-64
2022/09/30 06:45:21;;;;;;;10.27;4.05;;;;;;;21.63;58.03;99517.81;3114959;28;20140;-64
2022/09/30 06:46:54;;;;;;;10.50;3.75;;;;;;;21.86;57.29;99519.06;3112297;28;20057;-63
2022/09/30 06:48:28;;;;;;;7.72;3.47;;;;;;;21.99;56.49;99519.53;3115306;28;20053;-67
2022/09/30 06:50:01;;;;;;;9.43;2.97;;;;;;;22.04;55.18;99516.44;3115299;28;20462;-65
2022/09/30 06:51:35;;;;;;;7.78;2.95;;;;;;;22.10;55.01;99515.03;3115290;28;20516;-65
2022/09/30 06:53:08;;;;;;;11.18;3.25;;;;;;;22.27;54.74;99500.94;3115321;28;20091;-66
2022/09/30 06:54:42;;;;;;;11.50;4.15;;;;;;;22.43;54.20;99495.78;3115666;28;20053;-64
2022/09/30 06:56:17;;;;;;;8.18;2.75;;;;;;;22.60;54.08;99494.13;3115367;28;20478;-65
2022/09/30 06:57:49;;;;;;;6.68;2.97;;;;;;;22.76;53.25;99493.41;3115342;28;20526;-65
2022/09/30 06:59:21;;;;;;;7.43;3.88;;;;;;;22.93;52.56;99500.50;3114909;28;20053;-64
2022/09/30 07:01:02;;;;;;;10.90;3.47;;;;;;;23.11;52.24;99496.97;3112807;28;20824;-65
2022/09/30 07:02:35;;;;;;;9.43;3.42;;;;;;;23.27;51.56;99498.88;3113321;28;20494;-65
2022/09/30 07:04:08;;;;;;;10.60;3.33;;;;;;;23.41;50.99;99495.63;3115279;28;20131;-65
2022/09/30 07:05:40;;;;;;;5.57;3.78;;;;;;;23.49;50.87;99508.16;3112531;28;20057;-66
2022/09/30 07:07:12;;;;;;;9.68;3.95;;;;;;;23.66;50.28;99503.72;3115334;28;20065;-66
2022/09/30 07:08:44;;;;;;;8.10;3.40;;;;;;;23.90;49.99;99514.47;3115340;28;20061;-66
2022/09/30 07:10:16;;;;;;;7.93;3.83;;;;;;;24.12;49.65;99518.34;3114795;28;20049;-65
2022/09/30 07:11:48;;;;;;;9.93;3.83;;;;;;;24.34;49.40;99513.38;3115142;28;20062;-65
2022/09/30 07:13:19;;;;;;;13.68;3.67;;;;;;;24.56;48.90;99530.56;3115409;28;20144;-65
2022/09/30 07:14:51;;;;;;;12.65;4.07;;;;;;;24.73;48.16;99529.56;3115244;28;20053;-65
2022/09/30 07:16:25;;;;;;;10.52;2.90;;;;;;;25.02;48.00;99534.34;3115587;28;20100;-66
2022/09/30 07:17:57;;;;;;;5.90;2.80;;;;;;;25.26;46.97;99530.00;3115233;28;20057;-65
2022/09/30 07:19:29;;;;;;;9.73;3.55;;;;;;;25.50;46.76;99535.28;3114579;28;20064;-62
2022/09/30 07:21:01;;;;;;;10.07;3.10;;;;;;;25.73;45.89;99532.69;3115036;28;20136;-63
2022/09/30 07:22:33;;;;;;;7.97;2.70;;;;;;;26.00;45.84;99528.75;3115217;28;20056;-63
2022/09/30 07:24:05;;;;;;;12.52;3.08;;;;;;;26.21;44.69;99529.97;3114489;28;20053;-64
2022/09/30 07:25:38;;;;;;;10.50;3.17;;;;;;;26.41;43.93;99525.81;3115133;28;20164;-63
2022/09/30 07:27:12;;;;;;;5.70;2.47;;;;;;;26.62;43.84;99527.88;3115185;28;20093;-64